Anthony, Kansas
Current Conditions -  °F | °C
As of 4:30 PM on Wednesday 22 Oct 2014 (Local Time) from KAVK Reporting Station
Light Rain Light Rain  
Wind Chill: 64°   Ceiling: Unl
Heat Index: 64°   Visibility: 8mi
Dew Point: 59°   Wind: 9mph
Humidity: 83%   Direction: 200°SSW
Pressure: 30.06"   Gusts: NA
Location:  37.15°N, 98.03°W
Report Text: KAVK 222130Z AUTO 20008KT 8SM -RA CLR 18/15 A3006 RMK AO2
Loading
Personal Weather Stations






























Interactive Weather Map
Tropical Storm Tracking
New forecast layout! Learn more

10-Day Weather Forecast

Advertisements
Track Severe Weather on mobile